Estación Meteorológica Peña el Pijo (Robertgarden) [ 02/03/23 02:56:00 CET ]

Fecha Hora Presion(HPa) Temp (°C) Humedad % Rocio (°C) Viento ( m/s) Direccion Lluvia 1Hora(mm) Lluvia 24H(mm) LLuvia Total(mm)
2012-Jul-30 01:01:15 1014.500 18.1 68 12.1         176.12
2012-Jul-30 02:01:11 1014.500 17.1 64 10.2         176.12
2012-Jul-30 03:01:41 1014.300 15.4 69 9.8         176.12
2012-Jul-30 04:03:13 1014.400 13.8 73 9.0         176.12
2012-Jul-30 05:01:12 1014.300 13.0 74 8.5         176.12
2012-Jul-30 06:01:14 1014.300 12.4 76 8.3         176.12
2012-Jul-30 07:01:17 1014.700 12.2 74 7.7         176.12
2012-Jul-30 08:01:18 1015.000 12.9 79 9.3         176.12
2012-Jul-30 09:01:14 1015.200 20.1 63 12.8         176.12
2012-Jul-30 10:01:12 1015.000 26.4 46 13.8         176.12
2012-Jul-30 11:01:16 1015.000 30.9 36 14.0         176.12
2012-Jul-30 12:01:14 1014.700 34.6 26 12.1         176.12
2012-Jul-30 13:01:21 1014.600 35.8 21 10.0         176.12
2012-Jul-30 14:01:16 1014.200 37.3 20 10.6         176.12
2012-Jul-30 15:01:12 1013.700 37.8 18 9.0         176.12
2012-Jul-30 16:01:16 1013.400 37.8 23 12.9 2.7 ENE     176.12
2012-Jul-30 17:01:16 1013.200 36.9 23 12.2 2.6 ENE     176.12
2012-Jul-30 18:01:16 1013.000 36.5 25 13.1         176.12
2012-Jul-30 19:01:13 1013.200 36.3 25 12.9         176.12
2012-Jul-30 20:01:16 1013.200 34.8 18 6.6         176.12
2012-Jul-30 21:01:14 1013.700 30.3 33 12.2         176.12
2012-Jul-30 22:01:21 1014.400 27.1 45 14.1         176.12
2012-Jul-30 23:01:15 1015.100 23.4 56 14.1         176.12

Temperatura Máxima:37°    Temperatura Mínima:12°
Presión Máxima:1015.200 Hpa    Presión Mínima:1013.000 Hpa


Volver